sensor_id;sensor_type;location;lat;lon;timestamp;temperature;humidity
17202;DHT22;8717;53.588;10.176;2022-07-23T00:01:54;16.30;99.20
17202;DHT22;8717;53.588;10.176;2022-07-23T00:04:21;16.20;99.10
17202;DHT22;8717;53.588;10.176;2022-07-23T00:06:49;16.20;99.10
17202;DHT22;8717;53.588;10.176;2022-07-23T00:09:16;16.20;99.20
17202;DHT22;8717;53.588;10.176;2022-07-23T00:11:42;16.20;99.10
17202;DHT22;8717;53.588;10.176;2022-07-23T00:14:09;16.10;99.10
17202;DHT22;8717;53.588;10.176;2022-07-23T00:16:36;16.10;99.10
17202;DHT22;8717;53.588;10.176;2022-07-23T00:19:02;16.10;99.10
17202;DHT22;8717;53.588;10.176;2022-07-23T00:21:29;16.10;99.10
17202;DHT22;8717;53.588;10.176;2022-07-23T00:23:57;16.10;99.10
17202;DHT22;8717;53.588;10.176;2022-07-23T00:26:24;16.10;99.30
17202;DHT22;8717;53.588;10.176;2022-07-23T00:28:50;16.10;99.30
17202;DHT22;8717;53.588;10.176;2022-07-23T00:31:17;16.10;99.30
17202;DHT22;8717;53.588;10.176;2022-07-23T00:33:44;16.10;99.30
17202;DHT22;8717;53.588;10.176;2022-07-23T00:36:10;16.10;99.40
17202;DHT22;8717;53.588;10.176;2022-07-23T00:38:37;16.10;99.40
17202;DHT22;8717;53.588;10.176;2022-07-23T00:41:05;16.10;99.50
17202;DHT22;8717;53.588;10.176;2022-07-23T00:43:32;16.10;99.50
17202;DHT22;8717;53.588;10.176;2022-07-23T00:45:59;16.10;99.40
17202;DHT22;8717;53.588;10.176;2022-07-23T00:48:25;16.10;99.30
17202;DHT22;8717;53.588;10.176;2022-07-23T00:50:52;16.10;99.30
17202;DHT22;8717;53.588;10.176;2022-07-23T00:53:20;16.10;99.40
17202;DHT22;8717;53.588;10.176;2022-07-23T00:55:47;16.00;99.40
17202;DHT22;8717;53.588;10.176;2022-07-23T00:58:16;16.00;99.30
17202;DHT22;8717;53.588;10.176;2022-07-23T01:00:43;16.00;99.30
17202;DHT22;8717;53.588;10.176;2022-07-23T01:03:10;16.00;99.30
17202;DHT22;8717;53.588;10.176;2022-07-23T01:05:37;16.00;99.30
17202;DHT22;8717;53.588;10.176;2022-07-23T01:08:05;16.00;99.20
17202;DHT22;8717;53.588;10.176;2022-07-23T01:10:32;16.00;99.10
17202;DHT22;8717;53.588;10.176;2022-07-23T01:13:01;16.00;99.10
17202;DHT22;8717;53.588;10.176;2022-07-23T01:15:31;15.90;99.20
17202;DHT22;8717;53.588;10.176;2022-07-23T01:17:58;15.90;99.20
17202;DHT22;8717;53.588;10.176;2022-07-23T01:20:26;15.90;99.20
17202;DHT22;8717;53.588;10.176;2022-07-23T01:22:55;15.90;99.20
17202;DHT22;8717;53.588;10.176;2022-07-23T01:25:22;15.80;99.30
17202;DHT22;8717;53.588;10.176;2022-07-23T01:27:56;15.80;99.30
17202;DHT22;8717;53.588;10.176;2022-07-23T01:30:23;15.80;99.30
17202;DHT22;8717;53.588;10.176;2022-07-23T01:32:50;15.80;99.40
17202;DHT22;8717;53.588;10.176;2022-07-23T01:35:18;15.70;99.40
17202;DHT22;8717;53.588;10.176;2022-07-23T01:37:45;15.70;99.40
17202;DHT22;8717;53.588;10.176;2022-07-23T01:40:13;15.60;99.50
17202;DHT22;8717;53.588;10.176;2022-07-23T01:42:41;15.60;99.60
17202;DHT22;8717;53.588;10.176;2022-07-23T01:45:09;15.60;99.70
17202;DHT22;8717;53.588;10.176;2022-07-23T01:47:39;15.50;99.80
17202;DHT22;8717;53.588;10.176;2022-07-23T01:50:07;15.50;99.90
17202;DHT22;8717;53.588;10.176;2022-07-23T01:52:43;15.50;99.90
17202;DHT22;8717;53.588;10.176;2022-07-23T01:55:10;15.50;99.90
17202;DHT22;8717;53.588;10.176;2022-07-23T01:57:41;15.40;99.90
17202;DHT22;8717;53.588;10.176;2022-07-23T02:00:11;15.40;99.90
17202;DHT22;8717;53.588;10.176;2022-07-23T02:02:46;15.40;99.90
17202;DHT22;8717;53.588;10.176;2022-07-23T02:05:13;15.40;99.90
17202;DHT22;8717;53.588;10.176;2022-07-23T02:07:40;15.40;99.90
17202;DHT22;8717;53.588;10.176;2022-07-23T02:10:08;15.40;99.90
17202;DHT22;8717;53.588;10.176;2022-07-23T02:12:36;15.40;99.90
17202;DHT22;8717;53.588;10.176;2022-07-23T02:15:06;15.40;99.90
17202;DHT22;8717;53.588;10.176;2022-07-23T02:17:33;15.40;99.90
17202;DHT22;8717;53.588;10.176;2022-07-23T02:20:01;15.40;99.90
17202;DHT22;8717;53.588;10.176;2022-07-23T02:22:28;15.40;99.90
17202;DHT22;8717;53.588;10.176;2022-07-23T02:24:54;15.40;99.90
17202;DHT22;8717;53.588;10.176;2022-07-23T02:27:21;15.30;99.90
17202;DHT22;8717;53.588;10.176;2022-07-23T02:29:48;15.40;99.90
17202;DHT22;8717;53.588;10.176;2022-07-23T02:32:16;15.40;99.90
17202;DHT22;8717;53.588;10.176;2022-07-23T02:34:43;15.40;99.90
17202;DHT22;8717;53.588;10.176;2022-07-23T02:37:10;15.40;99.90
17202;DHT22;8717;53.588;10.176;2022-07-23T02:39:37;15.40;99.90
17202;DHT22;8717;53.588;10.176;2022-07-23T02:42:04;15.30;99.90
17202;DHT22;8717;53.588;10.176;2022-07-23T02:44:33;15.30;99.90
17202;DHT22;8717;53.588;10.176;2022-07-23T02:47:00;15.30;99.90
17202;DHT22;8717;53.588;10.176;2022-07-23T02:49:28;15.30;99.90
17202;DHT22;8717;53.588;10.176;2022-07-23T02:51:55;15.30;99.90
17202;DHT22;8717;53.588;10.176;2022-07-23T02:54:21;15.20;99.90
17202;DHT22;8717;53.588;10.176;2022-07-23T02:56:48;15.20;99.90
17202;DHT22;8717;53.588;10.176;2022-07-23T02:59:16;15.10;99.90
17202;DHT22;8717;53.588;10.176;2022-07-23T03:01:42;15.10;99.90
17202;DHT22;8717;53.588;10.176;2022-07-23T03:04:09;15.00;99.90
17202;DHT22;8717;53.588;10.176;2022-07-23T03:06:37;15.00;99.90
17202;DHT22;8717;53.588;10.176;2022-07-23T03:09:05;14.90;99.90
17202;DHT22;8717;53.588;10.176;2022-07-23T03:11:32;14.80;99.90
17202;DHT22;8717;53.588;10.176;2022-07-23T03:13:59;14.80;99.90
17202;DHT22;8717;53.588;10.176;2022-07-23T03:16:26;14.70;99.90
17202;DHT22;8717;53.588;10.176;2022-07-23T03:18:52;14.60;99.90
17202;DHT22;8717;53.588;10.176;2022-07-23T03:21:19;14.60;99.90
17202;DHT22;8717;53.588;10.176;2022-07-23T03:23:47;14.50;99.90
17202;DHT22;8717;53.588;10.176;2022-07-23T03:26:14;14.50;99.90
17202;DHT22;8717;53.588;10.176;2022-07-23T03:28:41;14.40;99.90
17202;DHT22;8717;53.588;10.176;2022-07-23T03:31:08;14.40;99.90
17202;DHT22;8717;53.588;10.176;2022-07-23T03:33:36;14.40;99.90
17202;DHT22;8717;53.588;10.176;2022-07-23T03:36:03;14.40;99.90
17202;DHT22;8717;53.588;10.176;2022-07-23T03:38:32;14.40;99.90
17202;DHT22;8717;53.588;10.176;2022-07-23T03:41:00;14.40;99.90
17202;DHT22;8717;53.588;10.176;2022-07-23T03:43:27;14.40;99.90
17202;DHT22;8717;53.588;10.176;2022-07-23T03:45:53;14.40;99.90
17202;DHT22;8717;53.588;10.176;2022-07-23T03:48:20;14.50;99.90
17202;DHT22;8717;53.588;10.176;2022-07-23T03:50:47;14.50;99.90
17202;DHT22;8717;53.588;10.176;2022-07-23T03:53:14;14.50;99.90
17202;DHT22;8717;53.588;10.176;2022-07-23T03:55:42;14.60;99.90
17202;DHT22;8717;53.588;10.176;2022-07-23T03:58:10;14.60;99.90
17202;DHT22;8717;53.588;10.176;2022-07-23T04:00:36;14.60;99.90
17202;DHT22;8717;53.588;10.176;2022-07-23T04:03:04;14.70;99.90
17202;DHT22;8717;53.588;10.176;2022-07-23T04:05:32;14.70;99.90
17202;DHT22;8717;53.588;10.176;2022-07-23T04:08:05;14.70;99.90
17202;DHT22;8717;53.588;10.176;2022-07-23T04:10:33;14.70;99.90
17202;DHT22;8717;53.588;10.176;2022-07-23T04:12:59;14.70;99.90
17202;DHT22;8717;53.588;10.176;2022-07-23T04:15:28;14.70;99.90
17202;DHT22;8717;53.588;10.176;2022-07-23T04:17:55;14.70;99.90
17202;DHT22;8717;53.588;10.176;2022-07-23T04:20:26;14.70;99.90
17202;DHT22;8717;53.588;10.176;2022-07-23T04:22:57;14.70;99.90
17202;DHT22;8717;53.588;10.176;2022-07-23T04:25:24;14.70;99.90
17202;DHT22;8717;53.588;10.176;2022-07-23T04:27:51;14.70;99.90
17202;DHT22;8717;53.588;10.176;2022-07-23T04:30:18;14.80;99.90
17202;DHT22;8717;53.588;10.176;2022-07-23T04:32:46;14.80;99.90
17202;DHT22;8717;53.588;10.176;2022-07-23T04:35:19;15.00;99.90
17202;DHT22;8717;53.588;10.176;2022-07-23T04:37:46;15.00;99.90
17202;DHT22;8717;53.588;10.176;2022-07-23T04:40:13;15.10;99.90
17202;DHT22;8717;53.588;10.176;2022-07-23T04:42:41;15.20;99.90
17202;DHT22;8717;53.588;10.176;2022-07-23T04:45:09;15.20;99.90
17202;DHT22;8717;53.588;10.176;2022-07-23T04:47:36;15.30;99.90
17202;DHT22;8717;53.588;10.176;2022-07-23T04:50:05;15.30;99.90
17202;DHT22;8717;53.588;10.176;2022-07-23T04:52:32;15.30;99.90
17202;DHT22;8717;53.588;10.176;2022-07-23T04:54:58;15.40;99.90
17202;DHT22;8717;53.588;10.176;2022-07-23T04:57:25;15.40;99.90
17202;DHT22;8717;53.588;10.176;2022-07-23T04:59:52;15.40;99.90
17202;DHT22;8717;53.588;10.176;2022-07-23T05:02:19;15.40;99.90
17202;DHT22;8717;53.588;10.176;2022-07-23T05:04:46;15.40;99.90
17202;DHT22;8717;53.588;10.176;2022-07-23T05:07:14;15.50;99.90
17202;DHT22;8717;53.588;10.176;2022-07-23T05:09:41;15.50;99.90
17202;DHT22;8717;53.588;10.176;2022-07-23T05:12:08;15.50;99.90
17202;DHT22;8717;53.588;10.176;2022-07-23T05:14:35;15.50;99.90
17202;DHT22;8717;53.588;10.176;2022-07-23T05:17:02;15.40;99.90
17202;DHT22;8717;53.588;10.176;2022-07-23T05:19:29;15.40;99.90
17202;DHT22;8717;53.588;10.176;2022-07-23T05:21:56;15.40;99.90
17202;DHT22;8717;53.588;10.176;2022-07-23T05:24:24;15.30;99.90
17202;DHT22;8717;53.588;10.176;2022-07-23T05:26:51;15.30;99.90
17202;DHT22;8717;53.588;10.176;2022-07-23T05:29:18;15.40;99.90
17202;DHT22;8717;53.588;10.176;2022-07-23T05:31:45;15.30;99.90
17202;DHT22;8717;53.588;10.176;2022-07-23T05:34:12;15.30;99.90
17202;DHT22;8717;53.588;10.176;2022-07-23T05:36:39;15.30;99.90
17202;DHT22;8717;53.588;10.176;2022-07-23T05:39:06;15.20;99.90
17202;DHT22;8717;53.588;10.176;2022-07-23T05:41:37;15.20;99.90
17202;DHT22;8717;53.588;10.176;2022-07-23T05:44:04;15.20;99.90
17202;DHT22;8717;53.588;10.176;2022-07-23T05:46:31;15.30;99.90
17202;DHT22;8717;53.588;10.176;2022-07-23T05:49:04;15.30;99.90
17202;DHT22;8717;53.588;10.176;2022-07-23T05:51:49;15.30;99.90
17202;DHT22;8717;53.588;10.176;2022-07-23T05:54:23;15.40;99.90
17202;DHT22;8717;53.588;10.176;2022-07-23T05:56:51;15.50;99.90
17202;DHT22;8717;53.588;10.176;2022-07-23T05:59:18;15.50;99.90
17202;DHT22;8717;53.588;10.176;2022-07-23T06:01:45;15.60;99.90
17202;DHT22;8717;53.588;10.176;2022-07-23T06:04:12;15.70;99.90
17202;DHT22;8717;53.588;10.176;2022-07-23T06:06:48;15.80;99.90
17202;DHT22;8717;53.588;10.176;2022-07-23T06:09:15;16.00;99.90
17202;DHT22;8717;53.588;10.176;2022-07-23T06:11:41;16.00;99.90
17202;DHT22;8717;53.588;10.176;2022-07-23T06:14:10;16.10;99.90
17202;DHT22;8717;53.588;10.176;2022-07-23T06:16:56;16.20;99.90
17202;DHT22;8717;53.588;10.176;2022-07-23T06:19:23;16.40;99.90
17202;DHT22;8717;53.588;10.176;2022-07-23T06:21:50;16.40;99.90
17202;DHT22;8717;53.588;10.176;2022-07-23T06:24:18;16.60;99.90
17202;DHT22;8717;53.588;10.176;2022-07-23T06:26:45;16.60;99.90
17202;DHT22;8717;53.588;10.176;2022-07-23T06:29:13;16.70;99.90
17202;DHT22;8717;53.588;10.176;2022-07-23T06:31:41;16.80;99.90
17202;DHT22;8717;53.588;10.176;2022-07-23T06:34:08;16.90;99.90
17202;DHT22;8717;53.588;10.176;2022-07-23T06:36:35;17.10;99.90
17202;DHT22;8717;53.588;10.176;2022-07-23T06:39:02;17.20;99.90
17202;DHT22;8717;53.588;10.176;2022-07-23T06:41:29;17.30;99.90
17202;DHT22;8717;53.588;10.176;2022-07-23T06:43:55;17.40;99.90
17202;DHT22;8717;53.588;10.176;2022-07-23T06:46:23;17.40;99.90
17202;DHT22;8717;53.588;10.176;2022-07-23T06:48:50;17.50;99.90
17202;DHT22;8717;53.588;10.176;2022-07-23T06:51:17;17.60;99.90
17202;DHT22;8717;53.588;10.176;2022-07-23T06:53:44;17.60;99.90
17202;DHT22;8717;53.588;10.176;2022-07-23T06:56:10;17.80;99.80
17202;DHT22;8717;53.588;10.176;2022-07-23T06:58:38;17.90;99.60
17202;DHT22;8717;53.588;10.176;2022-07-23T07:01:05;17.90;99.40
17202;DHT22;8717;53.588;10.176;2022-07-23T07:03:33;18.00;99.30
17202;DHT22;8717;53.588;10.176;2022-07-23T07:06:00;18.10;99.10
17202;DHT22;8717;53.588;10.176;2022-07-23T07:08:28;18.20;98.80
17202;DHT22;8717;53.588;10.176;2022-07-23T07:10:54;18.20;98.60
17202;DHT22;8717;53.588;10.176;2022-07-23T07:13:21;18.30;98.50
17202;DHT22;8717;53.588;10.176;2022-07-23T07:15:48;18.30;98.10
17202;DHT22;8717;53.588;10.176;2022-07-23T07:18:14;18.30;97.80
17202;DHT22;8717;53.588;10.176;2022-07-23T07:20:42;18.30;97.60
17202;DHT22;8717;53.588;10.176;2022-07-23T07:23:09;18.30;97.60
17202;DHT22;8717;53.588;10.176;2022-07-23T07:25:36;18.20;98.10
17202;DHT22;8717;53.588;10.176;2022-07-23T07:28:03;18.20;98.30
17202;DHT22;8717;53.588;10.176;2022-07-23T07:30:30;18.10;98.50
17202;DHT22;8717;53.588;10.176;2022-07-23T07:32:57;18.10;98.50
17202;DHT22;8717;53.588;10.176;2022-07-23T07:35:23;18.10;98.30
17202;DHT22;8717;53.588;10.176;2022-07-23T07:37:52;18.10;98.10
17202;DHT22;8717;53.588;10.176;2022-07-23T07:40:18;18.20;98.20
17202;DHT22;8717;53.588;10.176;2022-07-23T07:42:46;18.30;98.20
17202;DHT22;8717;53.588;10.176;2022-07-23T07:45:13;18.40;97.90
17202;DHT22;8717;53.588;10.176;2022-07-23T07:47:40;18.50;98.50
17202;DHT22;8717;53.588;10.176;2022-07-23T07:50:08;18.40;98.80
17202;DHT22;8717;53.588;10.176;2022-07-23T07:52:35;18.40;99.20
17202;DHT22;8717;53.588;10.176;2022-07-23T07:55:04;18.20;99.50
17202;DHT22;8717;53.588;10.176;2022-07-23T07:57:31;17.90;99.60
17202;DHT22;8717;53.588;10.176;2022-07-23T07:59:58;17.70;99.90
17202;DHT22;8717;53.588;10.176;2022-07-23T08:02:25;17.50;99.90
17202;DHT22;8717;53.588;10.176;2022-07-23T08:04:51;17.40;99.90
17202;DHT22;8717;53.588;10.176;2022-07-23T08:07:19;17.30;99.90
17202;DHT22;8717;53.588;10.176;2022-07-23T08:09:45;17.40;99.90
17202;DHT22;8717;53.588;10.176;2022-07-23T08:12:13;17.60;99.90
17202;DHT22;8717;53.588;10.176;2022-07-23T08:14:40;17.90;99.90
17202;DHT22;8717;53.588;10.176;2022-07-23T08:17:07;18.30;99.90
17202;DHT22;8717;53.588;10.176;2022-07-23T08:19:34;18.80;99.90
17202;DHT22;8717;53.588;10.176;2022-07-23T08:22:00;19.30;99.90
17202;DHT22;8717;53.588;10.176;2022-07-23T08:24:27;19.80;99.90
17202;DHT22;8717;53.588;10.176;2022-07-23T08:26:54;20.30;99.90
17202;DHT22;8717;53.588;10.176;2022-07-23T08:29:22;20.70;99.90
17202;DHT22;8717;53.588;10.176;2022-07-23T08:31:48;21.20;99.90
17202;DHT22;8717;53.588;10.176;2022-07-23T08:34:15;21.70;99.20
17202;DHT22;8717;53.588;10.176;2022-07-23T08:36:42;21.90;97.90
17202;DHT22;8717;53.588;10.176;2022-07-23T08:39:08;22.00;96.60
17202;DHT22;8717;53.588;10.176;2022-07-23T08:41:35;21.70;96.20
17202;DHT22;8717;53.588;10.176;2022-07-23T08:44:02;21.40;95.70
17202;DHT22;8717;53.588;10.176;2022-07-23T08:46:30;20.90;95.60
17202;DHT22;8717;53.588;10.176;2022-07-23T08:48:57;20.50;95.90
17202;DHT22;8717;53.588;10.176;2022-07-23T08:51:26;20.10;96.00
17202;DHT22;8717;53.588;10.176;2022-07-23T08:53:56;19.70;96.60
17202;DHT22;8717;53.588;10.176;2022-07-23T08:56:23;19.50;97.20
17202;DHT22;8717;53.588;10.176;2022-07-23T08:58:50;19.20;97.50
17202;DHT22;8717;53.588;10.176;2022-07-23T09:01:17;19.10;97.60
17202;DHT22;8717;53.588;10.176;2022-07-23T09:03:45;19.00;97.70
17202;DHT22;8717;53.588;10.176;2022-07-23T09:06:11;18.90;98.10
17202;DHT22;8717;53.588;10.176;2022-07-23T09:08:40;18.90;98.20
17202;DHT22;8717;53.588;10.176;2022-07-23T09:11:07;19.00;97.90
17202;DHT22;8717;53.588;10.176;2022-07-23T09:13:38;19.30;97.50
17202;DHT22;8717;53.588;10.176;2022-07-23T09:16:08;19.40;97.20
17202;DHT22;8717;53.588;10.176;2022-07-23T09:18:42;19.60;96.40
17202;DHT22;8717;53.588;10.176;2022-07-23T09:21:30;19.90;96.00
17202;DHT22;8717;53.588;10.176;2022-07-23T09:23:59;20.20;95.50
17202;DHT22;8717;53.588;10.176;2022-07-23T09:26:30;20.50;95.70
17202;DHT22;8717;53.588;10.176;2022-07-23T09:29:00;20.80;95.00
17202;DHT22;8717;53.588;10.176;2022-07-23T09:31:32;21.10;94.30
17202;DHT22;8717;53.588;10.176;2022-07-23T09:34:10;21.30;93.70
17202;DHT22;8717;53.588;10.176;2022-07-23T09:36:39;21.50;93.60
17202;DHT22;8717;53.588;10.176;2022-07-23T09:39:07;21.70;93.20
17202;DHT22;8717;53.588;10.176;2022-07-23T09:41:36;21.90;92.90
17202;DHT22;8717;53.588;10.176;2022-07-23T09:44:08;22.10;92.20
17202;DHT22;8717;53.588;10.176;2022-07-23T09:46:35;22.30;91.90
17202;DHT22;8717;53.588;10.176;2022-07-23T09:49:18;22.50;92.00
17202;DHT22;8717;53.588;10.176;2022-07-23T09:51:48;22.60;91.00
17202;DHT22;8717;53.588;10.176;2022-07-23T09:54:32;22.60;90.70
17202;DHT22;8717;53.588;10.176;2022-07-23T09:57:02;22.60;90.10
17202;DHT22;8717;53.588;10.176;2022-07-23T09:59:33;22.60;90.60
17202;DHT22;8717;53.588;10.176;2022-07-23T10:02:00;22.60;90.20
17202;DHT22;8717;53.588;10.176;2022-07-23T10:04:33;22.40;90.10
17202;DHT22;8717;53.588;10.176;2022-07-23T10:07:25;22.40;89.30
17202;DHT22;8717;53.588;10.176;2022-07-23T10:10:15;22.10;89.10
17202;DHT22;8717;53.588;10.176;2022-07-23T10:13:01;21.90;90.00
17202;DHT22;8717;53.588;10.176;2022-07-23T10:15:42;21.60;90.20
17202;DHT22;8717;53.588;10.176;2022-07-23T10:18:10;21.50;90.70
17202;DHT22;8717;53.588;10.176;2022-07-23T10:20:38;21.40;90.50
17202;DHT22;8717;53.588;10.176;2022-07-23T10:23:12;21.30;90.60
17202;DHT22;8717;53.588;10.176;2022-07-23T10:25:44;21.30;90.50
17202;DHT22;8717;53.588;10.176;2022-07-23T10:28:27;21.20;90.20
17202;DHT22;8717;53.588;10.176;2022-07-23T10:31:02;21.10;90.10
17202;DHT22;8717;53.588;10.176;2022-07-23T10:33:40;21.00;90.50
17202;DHT22;8717;53.588;10.176;2022-07-23T10:36:18;20.90;90.90
17202;DHT22;8717;53.588;10.176;2022-07-23T10:38:54;20.80;90.80
17202;DHT22;8717;53.588;10.176;2022-07-23T10:41:31;20.70;90.90
17202;DHT22;8717;53.588;10.176;2022-07-23T10:44:09;20.50;91.20
17202;DHT22;8717;53.588;10.176;2022-07-23T10:46:36;20.40;91.50
17202;DHT22;8717;53.588;10.176;2022-07-23T10:49:28;20.30;91.90
17202;DHT22;8717;53.588;10.176;2022-07-23T10:52:20;20.40;92.00
17202;DHT22;8717;53.588;10.176;2022-07-23T10:54:50;20.60;91.70
17202;DHT22;8717;53.588;10.176;2022-07-23T10:57:18;20.80;91.80
17202;DHT22;8717;53.588;10.176;2022-07-23T11:00:14;21.00;91.80
17202;DHT22;8717;53.588;10.176;2022-07-23T11:02:43;21.30;90.70
17202;DHT22;8717;53.588;10.176;2022-07-23T11:05:12;21.50;89.90
17202;DHT22;8717;53.588;10.176;2022-07-23T11:10:54;21.60;88.60
17202;DHT22;8717;53.588;10.176;2022-07-23T11:13:32;21.80;89.40
17202;DHT22;8717;53.588;10.176;2022-07-23T11:19:06;22.00;89.90
17202;DHT22;8717;53.588;10.176;2022-07-23T11:21:50;22.20;89.90
17202;DHT22;8717;53.588;10.176;2022-07-23T11:24:22;22.30;89.60
17202;DHT22;8717;53.588;10.176;2022-07-23T11:27:05;22.30;88.50
17202;DHT22;8717;53.588;10.176;2022-07-23T11:29:46;22.20;88.30
17202;DHT22;8717;53.588;10.176;2022-07-23T11:32:33;22.00;89.10
17202;DHT22;8717;53.588;10.176;2022-07-23T11:35:19;21.90;89.30
17202;DHT22;8717;53.588;10.176;2022-07-23T11:37:47;21.70;89.60
17202;DHT22;8717;53.588;10.176;2022-07-23T11:40:16;21.60;90.00
17202;DHT22;8717;53.588;10.176;2022-07-23T11:42:56;21.50;90.20
17202;DHT22;8717;53.588;10.176;2022-07-23T11:45:25;21.40;90.20
17202;DHT22;8717;53.588;10.176;2022-07-23T11:47:53;21.40;90.40
17202;DHT22;8717;53.588;10.176;2022-07-23T11:50:23;21.50;90.40
17202;DHT22;8717;53.588;10.176;2022-07-23T11:52:50;21.50;90.20
17202;DHT22;8717;53.588;10.176;2022-07-23T11:55:17;21.60;90.30
17202;DHT22;8717;53.588;10.176;2022-07-23T11:57:45;21.70;90.20
17202;DHT22;8717;53.588;10.176;2022-07-23T12:00:15;21.90;90.10
17202;DHT22;8717;53.588;10.176;2022-07-23T12:02:44;22.00;88.40
17202;DHT22;8717;53.588;10.176;2022-07-23T12:05:12;22.10;88.60
17202;DHT22;8717;53.588;10.176;2022-07-23T12:07:42;22.30;87.90
17202;DHT22;8717;53.588;10.176;2022-07-23T12:10:12;22.40;88.10
17202;DHT22;8717;53.588;10.176;2022-07-23T12:12:41;22.60;89.00
17202;DHT22;8717;53.588;10.176;2022-07-23T12:15:09;22.80;89.40
17202;DHT22;8717;53.588;10.176;2022-07-23T12:17:40;23.20;88.40
17202;DHT22;8717;53.588;10.176;2022-07-23T12:20:09;23.50;86.50
17202;DHT22;8717;53.588;10.176;2022-07-23T12:22:39;23.70;84.20
17202;DHT22;8717;53.588;10.176;2022-07-23T12:25:08;23.80;83.50
17202;DHT22;8717;53.588;10.176;2022-07-23T12:27:36;23.80;82.30
17202;DHT22;8717;53.588;10.176;2022-07-23T12:30:22;23.70;81.40
17202;DHT22;8717;53.588;10.176;2022-07-23T12:32:52;23.60;82.00
17202;DHT22;8717;53.588;10.176;2022-07-23T12:35:19;23.60;81.20
17202;DHT22;8717;53.588;10.176;2022-07-23T12:37:48;23.50;82.10
17202;DHT22;8717;53.588;10.176;2022-07-23T12:40:28;23.60;83.00
17202;DHT22;8717;53.588;10.176;2022-07-23T12:42:57;23.50;82.50
17202;DHT22;8717;53.588;10.176;2022-07-23T12:45:25;23.60;82.70
17202;DHT22;8717;53.588;10.176;2022-07-23T12:47:55;23.60;82.20
17202;DHT22;8717;53.588;10.176;2022-07-23T12:50:44;23.60;81.70
17202;DHT22;8717;53.588;10.176;2022-07-23T12:53:14;23.60;81.50
17202;DHT22;8717;53.588;10.176;2022-07-23T12:55:42;23.60;80.80
17202;DHT22;8717;53.588;10.176;2022-07-23T12:58:12;23.50;79.60
17202;DHT22;8717;53.588;10.176;2022-07-23T13:01:00;23.50;79.90
17202;DHT22;8717;53.588;10.176;2022-07-23T13:03:31;23.50;81.30
17202;DHT22;8717;53.588;10.176;2022-07-23T13:06:00;23.60;79.50
17202;DHT22;8717;53.588;10.176;2022-07-23T13:08:28;23.80;79.70
17202;DHT22;8717;53.588;10.176;2022-07-23T13:10:56;23.90;78.70
17202;DHT22;8717;53.588;10.176;2022-07-23T13:13:24;23.80;77.00
17202;DHT22;8717;53.588;10.176;2022-07-23T13:15:51;23.80;77.10
17202;DHT22;8717;53.588;10.176;2022-07-23T13:18:19;23.70;76.40
17202;DHT22;8717;53.588;10.176;2022-07-23T13:20:48;23.60;76.20
17202;DHT22;8717;53.588;10.176;2022-07-23T13:23:15;23.60;76.50
17202;DHT22;8717;53.588;10.176;2022-07-23T13:25:42;23.60;76.60
17202;DHT22;8717;53.588;10.176;2022-07-23T13:28:09;23.60;76.50
17202;DHT22;8717;53.588;10.176;2022-07-23T13:30:36;23.60;76.00
17202;DHT22;8717;53.588;10.176;2022-07-23T13:33:04;23.70;75.30
17202;DHT22;8717;53.588;10.176;2022-07-23T13:35:31;23.60;74.40
17202;DHT22;8717;53.588;10.176;2022-07-23T13:37:59;23.50;74.40
17202;DHT22;8717;53.588;10.176;2022-07-23T13:40:26;23.40;74.80
17202;DHT22;8717;53.588;10.176;2022-07-23T13:42:53;23.30;74.90
17202;DHT22;8717;53.588;10.176;2022-07-23T13:45:20;23.30;75.60
17202;DHT22;8717;53.588;10.176;2022-07-23T13:47:46;23.30;76.10
17202;DHT22;8717;53.588;10.176;2022-07-23T13:50:13;23.30;76.40
17202;DHT22;8717;53.588;10.176;2022-07-23T13:52:42;23.30;75.70
17202;DHT22;8717;53.588;10.176;2022-07-23T13:55:11;23.20;75.70
17202;DHT22;8717;53.588;10.176;2022-07-23T13:57:38;23.00;75.30
17202;DHT22;8717;53.588;10.176;2022-07-23T14:00:07;22.80;75.70
17202;DHT22;8717;53.588;10.176;2022-07-23T14:02:37;22.70;76.00
17202;DHT22;8717;53.588;10.176;2022-07-23T14:05:05;22.50;76.60
17202;DHT22;8717;53.588;10.176;2022-07-23T14:07:33;22.40;77.50
17202;DHT22;8717;53.588;10.176;2022-07-23T14:10:00;22.30;77.60
17202;DHT22;8717;53.588;10.176;2022-07-23T14:12:28;22.20;77.70
17202;DHT22;8717;53.588;10.176;2022-07-23T14:14:55;22.10;77.40
17202;DHT22;8717;53.588;10.176;2022-07-23T14:17:22;22.10;77.90
17202;DHT22;8717;53.588;10.176;2022-07-23T14:19:50;22.00;78.40
17202;DHT22;8717;53.588;10.176;2022-07-23T14:22:17;22.00;78.00
17202;DHT22;8717;53.588;10.176;2022-07-23T14:24:44;22.10;78.00
17202;DHT22;8717;53.588;10.176;2022-07-23T14:27:10;22.10;79.20
17202;DHT22;8717;53.588;10.176;2022-07-23T14:29:38;22.10;78.80
17202;DHT22;8717;53.588;10.176;2022-07-23T14:32:05;22.00;78.50
17202;DHT22;8717;53.588;10.176;2022-07-23T14:34:32;22.00;78.80
17202;DHT22;8717;53.588;10.176;2022-07-23T14:36:59;22.00;80.00
17202;DHT22;8717;53.588;10.176;2022-07-23T14:39:26;22.00;79.20
17202;DHT22;8717;53.588;10.176;2022-07-23T14:41:53;22.00;79.00
17202;DHT22;8717;53.588;10.176;2022-07-23T14:44:19;22.10;79.20
17202;DHT22;8717;53.588;10.176;2022-07-23T14:46:47;22.10;79.20
17202;DHT22;8717;53.588;10.176;2022-07-23T14:49:15;22.30;79.00
17202;DHT22;8717;53.588;10.176;2022-07-23T14:51:42;22.40;78.60
17202;DHT22;8717;53.588;10.176;2022-07-23T14:54:10;22.50;78.10
17202;DHT22;8717;53.588;10.176;2022-07-23T14:56:37;22.60;77.30
17202;DHT22;8717;53.588;10.176;2022-07-23T14:59:04;22.60;77.10
17202;DHT22;8717;53.588;10.176;2022-07-23T15:01:31;22.60;77.40
17202;DHT22;8717;53.588;10.176;2022-07-23T15:03:59;22.50;77.30
17202;DHT22;8717;53.588;10.176;2022-07-23T15:06:26;22.40;77.10
17202;DHT22;8717;53.588;10.176;2022-07-23T15:08:53;22.40;77.00
17202;DHT22;8717;53.588;10.176;2022-07-23T15:11:20;22.30;77.50
17202;DHT22;8717;53.588;10.176;2022-07-23T15:13:46;22.20;77.40
17202;DHT22;8717;53.588;10.176;2022-07-23T15:16:14;22.20;77.30
17202;DHT22;8717;53.588;10.176;2022-07-23T15:18:40;22.00;76.80
17202;DHT22;8717;53.588;10.176;2022-07-23T15:21:08;21.90;77.30
17202;DHT22;8717;53.588;10.176;2022-07-23T15:23:35;21.80;77.60
17202;DHT22;8717;53.588;10.176;2022-07-23T15:26:05;21.80;77.50
17202;DHT22;8717;53.588;10.176;2022-07-23T15:28:33;21.70;77.80
17202;DHT22;8717;53.588;10.176;2022-07-23T15:31:00;21.60;77.90
17202;DHT22;8717;53.588;10.176;2022-07-23T15:33:27;21.60;77.90
17202;DHT22;8717;53.588;10.176;2022-07-23T15:35:54;21.50;77.80
17202;DHT22;8717;53.588;10.176;2022-07-23T15:38:24;21.50;78.10
17202;DHT22;8717;53.588;10.176;2022-07-23T15:40:51;21.40;78.10
17202;DHT22;8717;53.588;10.176;2022-07-23T15:43:18;21.30;78.40
17202;DHT22;8717;53.588;10.176;2022-07-23T15:45:45;21.30;78.50
17202;DHT22;8717;53.588;10.176;2022-07-23T15:48:12;21.20;78.40